Time;durP1;ratioP1;P1;durP2;ratioP2;P2;SDS_P1;SDS_P2;PMS_P1;PMS_P2;Temp;Humidity;BMP_temperature;BMP_pressure;BME280_temperature;BME280_humidity;BME280_pressure;Samples;Min_cycle;Max_cycle;Signal;HPM_P1;HPM_P2
2023/03/20 00:00:20;;;;;;;29.20;16.83;;;;;;;2.41;100.00;93410.31;5090363;28;20056;-71
2023/03/20 00:02:47;;;;;;;24.85;14.63;;;;;;;2.56;100.00;93422.38;5089969;28;20482;-71
2023/03/20 00:05:20;;;;;;;20.20;13.20;;;;;;;2.53;100.00;93426.81;5090298;28;20110;-71
2023/03/20 00:07:48;;;;;;;24.45;14.45;;;;;;;2.56;100.00;93423.19;5077053;28;20040;-71
2023/03/20 00:10:16;;;;;;;21.95;13.18;;;;;;;2.53;100.00;93428.53;5090275;28;20385;-71
2023/03/20 00:12:47;;;;;;;67.72;39.60;;;;;;;2.40;100.00;93421.38;5090207;28;20047;-71
2023/03/20 00:15:24;;;;;;;36.63;20.55;;;;;;;2.46;100.00;93427.59;5090205;28;20052;-71
2023/03/20 00:17:51;;;;;;;30.52;18.13;;;;;;;2.46;100.00;93425.03;5090266;28;20044;-71
2023/03/20 00:20:18;;;;;;;27.15;15.82;;;;;;;1.55;100.00;93283.66;5090100;28;20048;-71
2023/03/20 00:22:45;;;;;;;28.35;15.48;;;;;;;2.47;100.00;93416.50;5089882;28;20097;-71
2023/03/20 00:25:15;;;;;;;25.38;13.80;;;;;;;2.45;100.00;93411.56;5089888;28;20421;-71
2023/03/20 00:27:42;;;;;;;26.77;12.85;;;;;;;2.46;100.00;93408.06;5089644;28;20055;-71
2023/03/20 00:30:21;;;;;;;26.50;13.07;;;;;;;2.39;100.00;93414.72;5089223;28;20101;-70
2023/03/20 00:32:48;;;;;;;31.48;16.48;;;;;;;2.35;100.00;93413.44;5088135;28;20159;-70
2023/03/20 00:35:20;;;;;;;30.55;16.15;;;;;;;2.36;100.00;93405.69;5088232;28;20048;-70
2023/03/20 00:37:47;;;;;;;29.70;15.80;;;;;;;2.23;100.00;93395.97;5089138;28;20048;-70
2023/03/20 00:40:14;;;;;;;31.63;15.68;;;;;;;2.32;100.00;93406.16;5089013;28;20508;-71
2023/03/20 00:42:42;;;;;;;34.22;17.05;;;;;;;2.30;100.00;93410.59;5088395;28;20047;-71
2023/03/20 00:45:13;;;;;;;43.13;21.50;;;;;;;2.25;100.00;93406.78;5088351;28;20044;-70
2023/03/20 00:47:42;;;;;;;33.20;18.02;;;;;;;2.25;100.00;93409.31;5088893;28;21079;-71
2023/03/20 00:50:16;;;;;;;33.90;17.15;;;;;;;2.23;100.00;93413.72;5089138;28;20036;-71
2023/03/20 00:52:43;;;;;;;35.17;20.50;;;;;;;2.19;100.00;93404.84;5088438;28;20159;-70
2023/03/20 00:55:10;;;;;;;36.38;19.55;;;;;;;2.16;100.00;93405.16;5088770;28;20079;-69
2023/03/20 00:57:40;;;;;;;33.45;18.55;;;;;;;2.13;100.00;93408.00;5088485;28;20101;-68
2023/03/20 01:00:13;;;;;;;36.97;21.92;;;;;;;2.10;100.00;93398.16;5088481;28;20040;-68
2023/03/20 01:02:41;;;;;;;39.90;22.55;;;;;;;2.03;100.00;93400.50;5088678;28;20044;-70
2023/03/20 01:05:08;;;;;;;37.67;21.13;;;;;;;2.02;100.00;93400.63;5088769;28;20673;-71
2023/03/20 01:07:35;;;;;;;37.13;23.75;;;;;;;2.01;100.00;93397.34;5088595;28;20056;-71
2023/03/20 01:10:02;;;;;;;45.00;23.98;;;;;;;1.97;100.00;93401.91;5088979;28;20048;-70
2023/03/20 01:12:29;;;;;;;44.53;23.38;;;;;;;1.97;100.00;93401.09;5088846;28;20074;-71
2023/03/20 01:14:57;;;;;;;39.85;22.50;;;;;;;1.96;100.00;93397.78;5089274;28;20048;-71
2023/03/20 01:17:27;;;;;;;49.72;27.52;;;;;;;1.98;100.00;93392.56;5088672;28;20048;-71
2023/03/20 01:19:55;;;;;;;57.05;28.02;;;;;;;1.98;100.00;93390.81;5089138;28;20044;-71
2023/03/20 01:22:22;;;;;;;45.55;25.65;;;;;;;1.98;100.00;93393.34;5088879;28;20097;-71
2023/03/20 01:24:49;;;;;;;48.17;22.70;;;;;;;1.97;100.00;93393.50;5088815;28;20044;-71
2023/03/20 01:27:18;;;;;;;41.05;22.42;;;;;;;1.95;100.00;93400.47;5088746;28;20124;-71
2023/03/20 01:29:45;;;;;;;39.13;22.33;;;;;;;1.90;100.00;93393.31;5089009;28;20052;-71
2023/03/20 01:32:14;;;;;;;39.92;20.88;;;;;;;1.89;100.00;93393.47;5088601;28;20044;-71
2023/03/20 01:34:41;;;;;;;46.22;25.30;;;;;;;1.87;100.00;93401.22;5089272;28;20048;-71
2023/03/20 01:37:14;;;;;;;47.15;23.70;;;;;;;1.85;100.00;93395.53;5088930;28;20113;-71
2023/03/20 01:39:41;;;;;;;41.58;22.20;;;;;;;1.77;100.00;93392.94;5088433;28;20052;-71
2023/03/20 01:42:08;;;;;;;36.53;18.92;;;;;;;1.80;100.00;93402.78;5090658;28;20089;-71
2023/03/20 01:44:36;;;;;;;33.35;16.88;;;;;;;1.77;100.00;93395.47;5092945;28;20541;-71
2023/03/20 01:47:12;;;;;;;29.25;12.95;;;;;;;1.72;100.00;93398.47;5092630;28;20405;-71
2023/03/20 01:50:16;;;;;;;26.23;13.50;;;;;;;1.60;100.00;93395.38;5093009;28;20439;-71
2023/03/20 01:52:44;;;;;;;27.42;13.70;;;;;;;1.53;100.00;93395.19;5082780;28;20048;-71
2023/03/20 01:55:12;;;;;;;28.33;13.45;;;;;;;1.50;100.00;93389.63;5093007;28;20044;-71
2023/03/20 01:57:39;;;;;;;26.63;13.45;;;;;;;1.37;100.00;93378.16;5092595;28;20056;-71
2023/03/20 02:00:10;;;;;;;30.48;14.70;;;;;;;1.27;100.00;93362.28;5092418;28;20079;-71
2023/03/20 02:02:40;;;;;;;31.80;14.50;;;;;;;1.48;100.00;93391.53;5092581;28;20040;-70
2023/03/20 02:05:09;;;;;;;30.08;14.15;;;;;;;1.44;100.00;93393.56;5092484;28;20508;-71
2023/03/20 02:07:38;;;;;;;31.05;14.45;;;;;;;1.44;100.00;93391.81;5092349;28;20044;-71
2023/03/20 02:10:10;;;;;;;30.73;14.88;;;;;;;1.50;100.00;93402.28;5092431;28;20109;-71
2023/03/20 02:12:38;;;;;;;37.60;15.57;;;;;;;1.45;100.00;93392.63;5092523;28;20098;-71
2023/03/20 02:15:07;;;;;;;34.42;15.65;;;;;;;1.40;100.00;93387.22;5092711;28;20052;-71
2023/03/20 02:17:34;;;;;;;37.20;18.88;;;;;;;1.39;100.00;93388.94;5092672;28;20044;-70
2023/03/20 02:20:12;;;;;;;37.00;18.67;;;;;;;1.36;100.00;93384.19;5092627;28;20048;-70
2023/03/20 02:23:05;;;;;;;44.92;20.92;;;;;;;1.36;100.00;93391.78;5092708;28;20048;-71
2023/03/20 02:26:12;;;;;;;62.15;31.08;;;;;;;1.26;100.00;93389.34;5063099;28;20446;-70
2023/03/20 02:29:17;;;;;;;58.97;29.60;;;;;;;1.29;100.00;93388.25;5091953;28;20055;-70
2023/03/20 02:32:20;;;;;;;58.63;26.00;;;;;;;1.31;100.00;93391.44;5090199;28;20098;-71
2023/03/20 02:35:24;;;;;;;48.13;24.52;;;;;;;1.35;100.00;93379.25;5068932;28;20044;-70
2023/03/20 02:38:12;;;;;;;45.90;22.45;;;;;;;1.32;100.00;93372.75;5092222;28;21073;-71
2023/03/20 02:40:48;;;;;;;42.70;20.30;;;;;;;1.38;100.00;93381.50;5092338;28;20411;-71
2023/03/20 02:43:17;;;;;;;;;;;;;;;1.40;100.00;93385.47;5092341;28;20048;-70
2023/03/20 02:45:52;;;;;;;39.22;19.17;;;;;;;1.25;100.00;93370.03;5092080;28;19924;-70
2023/03/20 02:48:29;;;;;;;35.67;18.38;;;;;;;1.32;100.00;93377.81;5092283;28;20109;-71
2023/03/20 02:51:01;;;;;;;41.75;20.88;;;;;;;1.28;100.00;93381.59;5091760;28;20040;-71
2023/03/20 02:53:40;;;;;;;40.05;21.02;;;;;;;1.31;100.00;93371.97;5091772;28;20450;-71
2023/03/20 02:56:17;;;;;;;36.83;18.88;;;;;;;1.34;100.00;93373.41;5091438;28;20047;-70
2023/03/20 02:58:50;;;;;;;41.05;18.58;;;;;;;1.35;100.00;93379.25;5091250;28;20174;-70
2023/03/20 03:01:21;;;;;;;44.30;21.80;;;;;;;1.33;100.00;93367.56;5091591;28;20044;-71
2023/03/20 03:03:53;;;;;;;43.35;21.50;;;;;;;1.34;100.00;93368.34;5091209;28;20050;-71
2023/03/20 03:06:25;;;;;;;44.13;21.23;;;;;;;1.12;100.00;93339.25;5091680;28;20093;-71
2023/03/20 03:08:58;;;;;;;39.95;20.00;;;;;;;1.22;100.00;93365.28;5091212;28;20515;-71
2023/03/20 03:11:25;;;;;;;40.10;19.67;;;;;;;1.24;100.00;93360.84;5091408;28;20089;-71
2023/03/20 03:13:55;;;;;;;42.22;21.48;;;;;;;1.01;100.00;93342.81;5091312;28;20044;-70
2023/03/20 03:16:26;;;;;;;39.97;21.85;;;;;;;0.83;100.00;93341.13;5091640;28;20090;-70
2023/03/20 03:19:01;;;;;;;67.72;35.40;;;;;;;0.86;100.00;93345.88;5091146;28;20089;-71
2023/03/20 03:21:30;;;;;;;37.77;19.10;;;;;;;0.95;100.00;93368.69;5090611;28;20052;-71
2023/03/20 03:23:58;;;;;;;35.55;18.95;;;;;;;0.95;100.00;93381.34;5091130;28;20048;-71
2023/03/20 03:26:28;;;;;;;92.60;41.08;;;;;;;0.76;100.00;93345.19;5090624;28;20491;-71
2023/03/20 03:29:00;;;;;;;53.42;28.58;;;;;;;0.99;100.00;93372.53;5090989;28;20565;-70
2023/03/20 03:31:28;;;;;;;37.05;19.85;;;;;;;1.08;100.00;93376.72;5091082;28;20415;-71
2023/03/20 03:33:57;;;;;;;31.60;16.45;;;;;;;1.08;100.00;93376.72;5090623;28;20048;-70
2023/03/20 03:36:36;;;;;;;32.90;16.83;;;;;;;1.10;100.00;93379.88;5090780;28;20055;-71
2023/03/20 03:39:13;;;;;;;26.05;14.27;;;;;;;0.82;100.00;93385.03;5090995;28;20533;-71
2023/03/20 03:41:46;;;;;;;32.00;17.55;;;;;;;0.70;100.00;93393.81;5090554;28;20059;-71
2023/03/20 03:44:20;;;;;;;48.38;24.08;;;;;;;0.51;100.00;93382.91;5090638;28;20081;-71
2023/03/20 03:46:53;;;;;;;35.25;19.35;;;;;;;0.32;100.00;93377.00;5090466;28;20094;-71
2023/03/20 03:49:23;;;;;;;33.75;18.85;;;;;;;0.25;100.00;93379.34;5090755;28;20508;-71
2023/03/20 03:51:55;;;;;;;31.30;16.95;;;;;;;0.07;100.00;93365.84;5090370;28;20048;-71
2023/03/20 03:54:26;;;;;;;26.38;14.82;;;;;;;0.10;100.00;93370.63;5090678;28;20052;-71
2023/03/20 03:56:55;;;;;;;26.45;16.00;;;;;;;-0.03;100.00;93371.78;5090298;28;20485;-71
2023/03/20 03:59:28;;;;;;;28.52;17.23;;;;;;;-0.11;100.00;93358.22;5090639;28;20455;-71
2023/03/20 04:01:57;;;;;;;28.85;16.08;;;;;;;0.03;100.00;93372.94;5090134;28;20048;-71
2023/03/20 04:04:25;;;;;;;32.42;17.95;;;;;;;0.09;100.00;93371.56;5090219;28;20887;-71
2023/03/20 04:06:52;;;;;;;34.53;18.08;;;;;;;0.15;100.00;93378.59;5090527;28;20168;-70
2023/03/20 04:09:19;;;;;;;32.75;16.88;;;;;;;0.13;100.00;93373.66;5090427;28;20043;-71
2023/03/20 04:11:50;;;;;;;37.05;20.65;;;;;;;0.12;100.00;93374.63;5090178;28;20117;-70
2023/03/20 04:14:18;;;;;;;40.33;20.95;;;;;;;0.05;100.00;93342.47;5089360;28;20059;-70
2023/03/20 04:16:45;;;;;;;36.58;21.02;;;;;;;0.24;100.00;93357.50;5090015;28;20048;-70
2023/03/20 04:19:12;;;;;;;43.13;22.05;;;;;;;0.02;100.00;93309.91;5089957;28;20036;-70
2023/03/20 04:21:38;;;;;;;69.38;33.65;;;;;;;0.42;100.00;93351.69;5089945;28;20048;-71
2023/03/20 04:24:06;;;;;;;95.45;52.30;;;;;;;0.45;100.00;93351.41;5090116;28;20109;-71
2023/03/20 04:26:32;;;;;;;67.55;33.78;;;;;;;0.50;100.00;93333.25;5090187;28;20044;-71
2023/03/20 04:29:01;;;;;;;55.25;29.40;;;;;;;0.61;100.00;93324.69;5090118;28;20052;-70
2023/03/20 04:31:28;;;;;;;59.15;29.88;;;;;;;0.77;100.00;93334.13;5089649;28;20518;-71
2023/03/20 04:33:55;;;;;;;40.53;22.40;;;;;;;0.78;100.00;93333.97;5089877;28;20404;-70
2023/03/20 04:36:22;;;;;;;37.97;20.75;;;;;;;0.82;100.00;93338.75;5090119;28;20048;-70
2023/03/20 04:38:49;;;;;;;31.42;15.88;;;;;;;0.85;100.00;93346.03;5089661;28;20064;-70
2023/03/20 04:41:16;;;;;;;25.63;14.30;;;;;;;0.75;100.00;93339.31;5089891;28;20511;-70
2023/03/20 04:43:42;;;;;;;24.50;14.25;;;;;;;0.50;100.00;93335.78;5089809;28;20462;-71
2023/03/20 04:46:11;;;;;;;35.28;18.67;;;;;;;0.53;100.00;93359.06;5090018;28;20040;-70
2023/03/20 04:48:37;;;;;;;47.00;26.80;;;;;;;0.36;100.00;93358.09;5089732;28;20109;-71
2023/03/20 04:51:04;;;;;;;48.75;26.60;;;;;;;0.53;100.00;93376.75;5088967;28;20052;-70
2023/03/20 04:53:31;;;;;;;71.88;41.70;;;;;;;0.53;100.00;93378.47;5089521;28;20094;-70
2023/03/20 04:55:58;;;;;;;49.67;26.60;;;;;;;0.52;100.00;93379.44;5089204;28;20040;-70
2023/03/20 04:58:24;;;;;;;39.13;20.55;;;;;;;0.37;100.00;93374.84;5096842;28;20451;-70
2023/03/20 05:00:51;;;;;;;38.72;19.88;;;;;;;0.31;100.00;93377.94;5089613;28;20101;-70
2023/03/20 05:03:19;;;;;;;38.90;20.42;;;;;;;0.25;100.00;93384.38;5089640;28;20093;-70
2023/03/20 05:05:46;;;;;;;45.75;22.77;;;;;;;0.20;100.00;93384.00;5089175;28;20040;-70
2023/03/20 05:08:13;;;;;;;52.08;24.42;;;;;;;0.22;100.00;93399.00;5089625;28;20056;-71
2023/03/20 05:10:39;;;;;;;56.42;28.75;;;;;;;0.10;100.00;93403.47;5072002;28;20044;-71
2023/03/20 05:13:06;;;;;;;52.25;27.80;;;;;;;0.07;100.00;93401.22;5086576;28;20060;-71
2023/03/20 05:15:33;;;;;;;42.17;24.90;;;;;;;0.19;100.00;93400.09;5089481;28;20048;-71
2023/03/20 05:18:00;;;;;;;43.90;23.48;;;;;;;0.25;100.00;93403.78;5089176;28;20664;-70
2023/03/20 05:20:28;;;;;;;49.88;23.30;;;;;;;0.21;100.00;93403.28;5088996;28;20109;-70
2023/03/20 05:22:54;;;;;;;50.42;25.92;;;;;;;0.21;100.00;93410.88;5088954;28;20052;-71
2023/03/20 05:25:21;;;;;;;50.47;26.75;;;;;;;0.23;100.00;93406.44;5089239;28;20056;-70
2023/03/20 05:27:48;;;;;;;54.42;27.17;;;;;;;0.20;100.00;93416.03;5089092;28;20128;-70
2023/03/20 05:30:15;;;;;;;51.13;28.65;;;;;;;0.26;100.00;93415.47;5088969;28;20105;-70
2023/03/20 05:32:42;;;;;;;49.95;26.60;;;;;;;0.32;100.00;93414.13;5088754;28;20051;-70
2023/03/20 05:35:09;;;;;;;50.70;27.58;;;;;;;0.47;100.00;93409.38;5088823;28;20048;-70
2023/03/20 05:37:38;;;;;;;48.08;27.60;;;;;;;0.61;100.00;93405.56;5089188;28;20455;-70
2023/03/20 05:40:06;;;;;;;53.88;26.00;;;;;;;0.83;100.00;93401.81;5088604;28;20056;-71
2023/03/20 05:42:32;;;;;;;44.38;24.00;;;;;;;0.90;100.00;93371.69;5088880;28;20096;-72
2023/03/20 05:44:59;;;;;;;43.25;25.90;;;;;;;1.32;100.00;93400.59;5088353;28;20051;-71
2023/03/20 05:47:26;;;;;;;48.33;25.25;;;;;;;1.62;100.00;93413.75;5089002;28;20465;-72
2023/03/20 05:49:53;;;;;;;54.00;27.55;;;;;;;1.78;100.00;93402.94;5088927;28;20044;-71
2023/03/20 05:52:20;;;;;;;49.03;25.65;;;;;;;1.93;100.00;93400.63;5089180;28;20683;-71
2023/03/20 05:54:48;;;;;;;52.83;27.48;;;;;;;2.20;100.00;93415.75;5088328;28;20508;-71
2023/03/20 05:57:16;;;;;;;50.90;26.83;;;;;;;2.36;100.00;93410.75;5088489;28;20046;-70
2023/03/20 05:59:43;;;;;;;44.35;26.73;;;;;;;2.52;100.00;93421.88;5088541;28;20044;-70
2023/03/20 06:02:10;;;;;;;45.33;29.13;;;;;;;2.65;100.00;93413.84;5088893;28;20048;-70
2023/03/20 06:04:36;;;;;;;48.53;27.50;;;;;;;2.79;100.00;93409.91;5088364;28;20089;-70
2023/03/20 06:07:03;;;;;;;51.70;26.63;;;;;;;2.92;100.00;93404.38;5088940;28;20716;-70
2023/03/20 06:09:30;;;;;;;46.20;24.55;;;;;;;2.93;100.00;93390.72;5088522;28;20040;-70
2023/03/20 06:11:58;;;;;;;52.25;26.70;;;;;;;3.13;100.00;93393.75;5088711;28;20048;-70
2023/03/20 06:14:25;;;;;;;50.50;28.58;;;;;;;3.26;100.00;93395.81;5088370;28;20047;-70
2023/03/20 06:16:52;;;;;;;47.65;26.08;;;;;;;3.38;100.00;93391.16;5088712;28;20476;-70
2023/03/20 06:19:20;;;;;;;49.75;25.77;;;;;;;3.39;100.00;93394.50;5088511;28;20048;-70
2023/03/20 06:21:47;;;;;;;56.60;28.60;;;;;;;3.33;100.00;93373.88;5088380;28;20048;-69
2023/03/20 06:24:14;;;;;;;50.50;28.08;;;;;;;3.40;100.00;93398.63;5089193;28;20052;-70
2023/03/20 06:26:41;;;;;;;63.03;33.47;;;;;;;3.58;100.00;93403.53;5092392;28;20044;-69
2023/03/20 06:29:09;;;;;;;71.53;37.45;;;;;;;3.59;100.00;93402.56;5092109;28;20043;-70
2023/03/20 06:31:36;;;;;;;68.53;33.10;;;;;;;3.52;100.00;93410.03;5092359;28;20044;-70
2023/03/20 06:34:03;;;;;;;64.25;33.13;;;;;;;3.40;100.00;93408.78;5091803;28;20044;-70
2023/03/20 06:36:30;;;;;;;70.93;34.65;;;;;;;3.61;100.00;93405.75;5091743;28;20492;-70
2023/03/20 06:38:57;;;;;;;60.10;31.58;;;;;;;3.59;100.00;93388.13;5091816;28;20412;-70
2023/03/20 06:41:24;;;;;;;45.88;23.45;;;;;;;3.64;100.00;93415.59;5091583;28;20052;-71
2023/03/20 06:43:51;;;;;;;55.03;26.10;;;;;;;3.77;100.00;93415.09;5092226;28;20484;-69
2023/03/20 06:46:19;;;;;;;47.85;26.23;;;;;;;3.88;100.00;93403.78;5092180;28;20101;-70
2023/03/20 06:48:47;;;;;;;56.28;28.38;;;;;;;4.23;100.00;93406.84;5091628;28;20719;-70
2023/03/20 06:51:14;;;;;;;64.15;29.85;;;;;;;4.38;100.00;93404.38;5091701;28;20048;-70
2023/03/20 06:53:42;;;;;;;54.78;26.38;;;;;;;4.59;100.00;93402.22;5091440;28;20055;-70
2023/03/20 06:56:10;;;;;;;54.78;27.90;;;;;;;4.55;100.00;93402.53;5091258;28;20127;-69
2023/03/20 06:58:37;;;;;;;51.92;24.23;;;;;;;4.42;100.00;93404.84;5091392;28;20506;-70
2023/03/20 07:01:09;;;;;;;57.17;26.00;;;;;;;4.48;100.00;93398.28;5091129;28;20130;-69
2023/03/20 07:03:37;;;;;;;56.30;26.05;;;;;;;4.78;100.00;93396.69;5091148;28;20073;-69
2023/03/20 07:06:05;;;;;;;42.10;22.33;;;;;;;4.79;100.00;93405.94;5091414;28;20093;-69
2023/03/20 07:08:32;;;;;;;45.22;20.60;;;;;;;4.91;100.00;93400.44;5091758;28;20044;-69
2023/03/20 07:10:59;;;;;;;45.95;23.13;;;;;;;5.10;100.00;93400.94;5091060;28;20503;-69
2023/03/20 07:13:27;;;;;;;45.33;22.65;;;;;;;5.31;100.00;93396.00;5091341;28;20097;-69
2023/03/20 07:15:53;;;;;;;43.22;21.92;;;;;;;5.53;100.00;93390.22;5090999;28;20126;-69
2023/03/20 07:18:21;;;;;;;46.50;22.50;;;;;;;5.88;100.00;93390.53;5091555;28;20041;-69
2023/03/20 07:20:51;;;;;;;50.75;23.65;;;;;;;6.08;99.89;93398.47;5091363;28;20054;-70
2023/03/20 07:23:17;;;;;;;51.95;23.98;;;;;;;6.33;99.41;93384.59;5091120;28;20492;-69
2023/03/20 07:25:45;;;;;;;51.65;22.08;;;;;;;6.36;95.28;93390.16;5090676;28;20105;-70
2023/03/20 07:28:12;;;;;;;46.83;21.88;;;;;;;6.49;95.55;93391.28;5090941;28;20054;-70
2023/03/20 07:30:40;;;;;;;45.00;24.95;;;;;;;6.55;94.95;93388.81;5090705;28;20048;-70
2023/03/20 07:33:06;;;;;;;50.97;25.35;;;;;;;6.72;93.56;93380.13;5090609;28;20578;-70
2023/03/20 07:35:33;;;;;;;50.08;26.77;;;;;;;6.80;95.98;93383.34;5090437;28;20125;-70
2023/03/20 07:38:01;;;;;;;44.28;21.55;;;;;;;6.74;93.56;93390.94;5090476;28;20089;-70
2023/03/20 07:40:28;;;;;;;47.17;22.85;;;;;;;6.93;92.63;93385.25;5090978;28;20047;-69
2023/03/20 07:42:55;;;;;;;45.83;21.20;;;;;;;7.11;90.51;93389.13;5090584;28;20048;-70
2023/03/20 07:45:21;;;;;;;45.63;21.52;;;;;;;7.22;88.84;93375.84;5090482;28;20070;-70
2023/03/20 07:47:48;;;;;;;49.53;22.00;;;;;;;7.57;88.19;93382.78;5090797;28;20048;-69
2023/03/20 07:50:16;;;;;;;45.53;25.08;;;;;;;7.79;88.21;93377.63;5077342;28;20086;-70
2023/03/20 07:52:46;;;;;;;50.58;22.45;;;;;;;8.09;89.26;93385.06;5090517;28;20059;-70
2023/03/20 07:55:15;;;;;;;41.35;18.13;;;;;;;8.30;84.48;93383.38;5077693;28;20105;-70
2023/03/20 07:57:42;;;;;;;35.55;17.35;;;;;;;8.46;84.37;93353.31;5090323;28;20044;-70
2023/03/20 08:00:10;;;;;;;38.10;20.15;;;;;;;8.82;85.15;93381.19;5090392;28;20561;-70
2023/03/20 08:02:37;;;;;;;38.58;17.40;;;;;;;9.08;81.85;93381.44;5090380;28;20470;-71
2023/03/20 08:05:05;;;;;;;42.42;17.83;;;;;;;9.40;79.25;93373.16;5090267;28;20101;-70
2023/03/20 08:07:34;;;;;;;38.50;16.40;;;;;;;9.63;80.72;93362.50;5090112;28;20106;-70
2023/03/20 08:10:02;;;;;;;33.40;14.18;;;;;;;9.88;77.53;93362.66;5090527;28;20040;-70
2023/03/20 08:12:45;;;;;;;35.10;15.90;;;;;;;10.02;74.33;93352.31;5090004;28;20105;-71
2023/03/20 08:15:27;;;;;;;46.80;15.70;;;;;;;10.06;72.99;93360.41;5090627;28;20048;-70
2023/03/20 08:18:06;;;;;;;30.60;13.70;;;;;;;10.16;74.15;93363.34;5090892;28;20051;-70
2023/03/20 08:20:46;;;;;;;31.02;13.70;;;;;;;10.49;76.10;93370.16;5090268;28;20135;-70
2023/03/20 08:23:13;;;;;;;36.65;13.88;;;;;;;10.76;72.09;93362.31;5089754;28;20496;-70
2023/03/20 08:25:40;;;;;;;41.65;14.50;;;;;;;10.97;70.80;93362.97;5089573;28;20085;-70
2023/03/20 08:28:10;;;;;;;34.05;14.95;;;;;;;11.54;71.49;93362.16;5089643;28;20097;-70
2023/03/20 08:30:37;;;;;;;36.08;12.95;;;;;;;11.75;68.68;93360.97;5089639;28;20446;-70
2023/03/20 08:33:04;;;;;;;34.92;13.45;;;;;;;12.18;71.08;93361.16;5090052;28;20048;-70
2023/03/20 08:35:30;;;;;;;31.08;12.50;;;;;;;12.62;72.39;93376.50;5089593;28;20065;-70
2023/03/20 08:37:57;;;;;;;29.88;12.80;;;;;;;13.01;69.15;93365.84;5090024;28;20408;-70
2023/03/20 08:40:24;;;;;;;32.35;13.48;;;;;;;13.00;60.65;93373.81;5089974;28;20052;-70
2023/03/20 08:42:51;;;;;;;28.33;10.73;;;;;;;13.35;67.21;93366.16;5089678;28;20040;-70
2023/03/20 08:45:19;;;;;;;26.77;10.70;;;;;;;13.27;60.78;93373.41;5089560;28;20048;-70
2023/03/20 08:47:47;;;;;;;24.35;10.35;;;;;;;13.45;58.66;93365.59;5089535;28;20044;-70
2023/03/20 08:50:14;;;;;;;22.45;10.48;;;;;;;13.41;59.99;93361.88;5089361;28;20050;-70
2023/03/20 08:52:42;;;;;;;24.75;11.02;;;;;;;13.39;60.06;93368.28;5096368;28;20048;-71
2023/03/20 08:55:09;;;;;;;27.27;10.85;;;;;;;13.57;60.19;93372.59;5093738;28;20151;-71
2023/03/20 08:57:37;;;;;;;24.38;10.23;;;;;;;14.05;63.61;93367.38;5089737;28;20048;-70
2023/03/20 09:00:05;;;;;;;22.90;9.65;;;;;;;14.03;55.85;93362.47;5089135;28;20384;-70
2023/03/20 09:02:33;;;;;;;21.25;10.05;;;;;;;14.30;57.81;93352.41;5089572;28;20044;-70
2023/03/20 09:05:00;;;;;;;18.02;8.63;;;;;;;14.57;56.21;93357.06;5088796;28;20051;-70
2023/03/20 09:07:26;;;;;;;20.40;8.15;;;;;;;14.62;52.62;93358.16;5089006;28;20048;-70
2023/03/20 09:09:53;;;;;;;18.63;7.57;;;;;;;14.59;54.69;93353.44;5089391;28;20044;-70
2023/03/20 09:12:20;;;;;;;13.50;7.60;;;;;;;14.88;55.41;93354.25;5089333;28;20097;-70
2023/03/20 09:14:46;;;;;;;16.23;7.35;;;;;;;15.01;50.56;93354.97;5088685;28;20500;-70
2023/03/20 09:17:13;;;;;;;15.57;7.10;;;;;;;15.33;55.11;93344.88;5089453;28;20044;-70
2023/03/20 09:19:43;;;;;;;15.63;6.68;;;;;;;15.75;56.30;93335.13;5089264;28;20052;-70
2023/03/20 09:22:12;;;;;;;13.05;6.63;;;;;;;16.14;54.30;93339.50;5089169;28;20500;-71
2023/03/20 09:24:39;;;;;;;15.88;6.97;;;;;;;16.19;47.80;93333.63;5089147;28;20097;-70
2023/03/20 09:27:06;;;;;;;17.38;5.95;;;;;;;16.37;48.54;93332.50;5088823;28;20044;-70
2023/03/20 09:29:33;;;;;;;12.27;5.57;;;;;;;16.22;45.50;93312.41;5088783;28;20051;-70
2023/03/20 09:31:59;;;;;;;11.27;5.63;;;;;;;16.26;44.41;93329.03;5088903;28;20105;-71
2023/03/20 09:34:26;;;;;;;16.55;5.50;;;;;;;16.52;47.13;93326.75;5089045;28;20071;-71
2023/03/20 09:36:54;;;;;;;13.32;5.60;;;;;;;16.90;49.40;93325.00;5088989;28;20086;-71
2023/03/20 09:39:21;;;;;;;14.38;4.93;;;;;;;17.18;47.43;93315.41;5088968;28;20067;-71
2023/03/20 09:41:49;;;;;;;14.55;4.60;;;;;;;17.19;42.90;93304.00;5088460;28;20090;-71
2023/03/20 09:44:30;;;;;;;12.20;4.57;;;;;;;17.50;47.18;93311.22;5089121;28;20051;-71
2023/03/20 09:47:10;;;;;;;13.82;4.72;;;;;;;17.60;41.42;93308.66;5088564;28;20044;-71
2023/03/20 09:49:46;;;;;;;8.93;4.25;;;;;;;17.65;42.37;93261.19;5088372;28;20629;-71
2023/03/20 09:52:22;;;;;;;11.43;4.88;;;;;;;18.09;42.16;93290.50;5089149;28;20036;-71
2023/03/20 09:54:51;;;;;;;8.63;3.53;;;;;;;18.12;40.06;93285.59;5088445;28;20114;-71
2023/03/20 09:57:24;;;;;;;10.93;3.85;;;;;;;18.18;36.00;93257.78;5088635;28;20397;-71
2023/03/20 09:59:57;;;;;;;8.30;4.03;;;;;;;18.61;39.63;93278.41;5090383;28;20052;-71
2023/03/20 10:02:40;;;;;;;5.50;2.60;;;;;;;18.76;35.61;93271.66;5079362;28;20044;-71
2023/03/20 10:05:19;;;;;;;8.50;2.65;;;;;;;18.75;35.61;93265.69;5092434;28;20040;-70
2023/03/20 10:07:47;;;;;;;5.43;3.40;;;;;;;19.06;38.14;93255.31;5092357;28;20567;-71
2023/03/20 10:10:15;;;;;;;21.35;6.18;;;;;;;19.03;37.76;93257.63;5092622;28;20058;-71
2023/03/20 10:13:01;;;;;;;8.63;3.30;;;;;;;19.16;38.30;93251.91;5092831;28;20047;-71
2023/03/20 10:15:41;;;;;;;5.68;2.53;;;;;;;19.32;32.87;93257.09;5092242;28;20059;-71
2023/03/20 10:18:18;;;;;;;12.40;3.90;;;;;;;18.97;32.45;93262.03;5088664;28;20040;-71
2023/03/20 10:20:52;;;;;;;6.55;3.60;;;;;;;19.02;34.29;93249.03;5080143;28;20048;-71
2023/03/20 10:23:27;;;;;;;9.02;3.22;;;;;;;19.28;36.83;93245.66;5089870;28;20044;-71
2023/03/20 10:25:59;;;;;;;8.15;3.60;;;;;;;19.50;37.00;93242.75;5100376;28;20415;-71
2023/03/20 10:28:33;;;;;;;10.90;4.25;;;;;;;19.50;35.16;93238.31;5091848;28;20840;-71
2023/03/20 10:31:11;;;;;;;6.57;3.08;;;;;;;19.44;34.81;93230.78;5098816;28;20044;-71
2023/03/20 10:33:51;;;;;;;9.43;4.05;;;;;;;18.72;35.06;93242.00;5095326;28;20048;-71
2023/03/20 10:36:45;;;;;;;7.10;3.10;;;;;;;18.53;34.27;93237.31;5092211;28;20051;-71
2023/03/20 10:39:25;;;;;;;4.50;2.45;;;;;;;18.54;33.74;93239.66;5081377;28;20081;-71
2023/03/20 10:41:56;;;;;;;7.75;3.13;;;;;;;19.09;37.02;93231.38;5091941;28;20067;-70
2023/03/20 10:44:30;;;;;;;12.57;4.22;;;;;;;19.04;32.73;93223.56;5091827;28;20125;-69
2023/03/20 10:47:01;;;;;;;13.23;4.10;;;;;;;18.95;33.45;93223.28;5091674;28;20398;-69
2023/03/20 10:49:36;;;;;;;16.73;4.82;;;;;;;19.34;36.38;93214.13;5091402;28;20052;-69
2023/03/20 10:52:08;;;;;;;17.15;5.18;;;;;;;18.77;32.30;93205.56;5092021;28;20393;-69
2023/03/20 10:54:40;;;;;;;18.13;4.03;;;;;;;18.62;33.06;93224.56;5091753;28;20048;-68
2023/03/20 10:57:16;;;;;;;10.85;3.65;;;;;;;18.78;32.09;93220.13;5091213;28;20097;-68
2023/03/20 10:59:48;;;;;;;8.57;2.92;;;;;;;18.70;33.40;93219.63;5091572;28;20058;-68
2023/03/20 11:02:16;;;;;;;8.98;3.83;;;;;;;18.61;32.67;93210.00;5082714;28;20052;-69
2023/03/20 11:04:43;;;;;;;10.32;3.20;;;;;;;18.45;31.73;93209.19;5091128;28;20036;-68
2023/03/20 11:07:19;;;;;;;6.82;2.85;;;;;;;18.43;34.25;93204.28;5090837;28;20054;-69
2023/03/20 11:10:07;;;;;;;4.82;2.65;;;;;;;18.67;33.21;93199.34;5079387;28;20044;-69
2023/03/20 11:12:36;;;;;;;4.53;2.30;;;;;;;18.98;31.02;93201.13;5091161;28;20048;-68
2023/03/20 11:15:14;;;;;;;8.77;2.70;;;;;;;19.39;36.30;93187.28;5091222;28;20496;-69
2023/03/20 11:17:40;;;;;;;6.15;2.65;;;;;;;19.15;31.02;93181.88;5091109;28;20442;-69
2023/03/20 11:20:08;;;;;;;6.60;2.85;;;;;;;19.44;31.45;93184.66;5091215;28;20094;-69
2023/03/20 11:22:43;;;;;;;13.60;3.40;;;;;;;18.63;32.24;93185.28;5091639;28;20113;-71
2023/03/20 11:25:29;;;;;;;14.15;4.07;;;;;;;18.35;31.57;93121.56;5091878;28;20455;-72
2023/03/20 11:27:57;;;;;;;10.30;3.72;;;;;;;18.22;32.15;93154.03;5078586;28;20044;-71
2023/03/20 11:30:24;;;;;;;9.20;3.50;;;;;;;18.48;32.08;93173.06;5091617;28;20043;-70
2023/03/20 11:32:55;;;;;;;7.50;2.47;;;;;;;18.69;31.36;93175.66;5081984;28;20049;-70